sensor_id;sensor_type;location;lat;lon;timestamp;pressure;altitude;pressure_sealevel;temperature;humidity
23733;BME280;12047;53.450;-2.286;2023-03-14T00:03:25;98506.84;;;12.74;100.00
23733;BME280;12047;53.450;-2.286;2023-03-14T00:08:25;98511.53;;;12.32;100.00
23733;BME280;12047;53.450;-2.286;2023-03-14T00:13:26;98510.91;;;12.96;100.00
23733;BME280;12047;53.450;-2.286;2023-03-14T00:18:26;98524.41;;;12.48;100.00
23733;BME280;12047;53.450;-2.286;2023-03-14T00:23:28;98537.84;;;13.39;100.00
23733;BME280;12047;53.450;-2.286;2023-03-14T00:28:29;98565.72;;;13.10;100.00
23733;BME280;12047;53.450;-2.286;2023-03-14T00:33:29;98569.41;;;12.76;100.00
23733;BME280;12047;53.450;-2.286;2023-03-14T00:38:31;98587.81;;;13.31;100.00
23733;BME280;12047;53.450;-2.286;2023-03-14T00:43:32;98612.72;;;12.57;100.00
23733;BME280;12047;53.450;-2.286;2023-03-14T00:48:33;98617.59;;;11.92;100.00
23733;BME280;12047;53.450;-2.286;2023-03-14T00:53:38;98638.47;;;12.76;100.00
23733;BME280;12047;53.450;-2.286;2023-03-14T00:58:39;98654.47;;;13.16;100.00
23733;BME280;12047;53.450;-2.286;2023-03-14T01:03:39;98673.69;;;13.05;100.00
23733;BME280;12047;53.450;-2.286;2023-03-14T01:08:40;98695.31;;;12.88;100.00
23733;BME280;12047;53.450;-2.286;2023-03-14T01:13:41;98700.66;;;12.27;100.00
23733;BME280;12047;53.450;-2.286;2023-03-14T01:18:43;98722.44;;;12.57;100.00
23733;BME280;12047;53.450;-2.286;2023-03-14T01:23:45;98725.75;;;11.13;100.00
23733;BME280;12047;53.450;-2.286;2023-03-14T01:28:47;98734.94;;;11.88;100.00
23733;BME280;12047;53.450;-2.286;2023-03-14T01:33:47;98760.16;;;12.05;100.00
23733;BME280;12047;53.450;-2.286;2023-03-14T01:38:48;98772.16;;;11.73;100.00
23733;BME280;12047;53.450;-2.286;2023-03-14T01:43:49;98787.53;;;11.35;100.00
23733;BME280;12047;53.450;-2.286;2023-03-14T01:49:01;98806.38;;;11.68;100.00
23733;BME280;12047;53.450;-2.286;2023-03-14T01:54:06;98822.88;;;10.70;100.00
23733;BME280;12047;53.450;-2.286;2023-03-14T01:59:09;98836.09;;;11.36;100.00
23733;BME280;12047;53.450;-2.286;2023-03-14T02:04:11;98860.34;;;10.00;100.00
23733;BME280;12047;53.450;-2.286;2023-03-14T02:09:11;98870.13;;;11.53;100.00
23733;BME280;12047;53.450;-2.286;2023-03-14T02:14:19;98892.78;;;11.20;100.00
23733;BME280;12047;53.450;-2.286;2023-03-14T02:19:30;98902.03;;;11.24;100.00
23733;BME280;12047;53.450;-2.286;2023-03-14T02:24:46;98910.00;;;11.45;100.00
23733;BME280;12047;53.450;-2.286;2023-03-14T02:29:54;98920.53;;;11.75;100.00
23733;BME280;12047;53.450;-2.286;2023-03-14T02:34:59;98944.97;;;11.34;100.00
23733;BME280;12047;53.450;-2.286;2023-03-14T02:40:03;98953.16;;;11.54;100.00
23733;BME280;12047;53.450;-2.286;2023-03-14T02:50:13;98990.47;;;10.64;100.00
23733;BME280;12047;53.450;-2.286;2023-03-14T02:55:23;99010.69;;;10.80;100.00
23733;BME280;12047;53.450;-2.286;2023-03-14T03:00:25;99028.06;;;10.97;100.00
23733;BME280;12047;53.450;-2.286;2023-03-14T03:05:25;99037.41;;;11.22;100.00
23733;BME280;12047;53.450;-2.286;2023-03-14T03:10:27;99055.59;;;11.40;100.00
23733;BME280;12047;53.450;-2.286;2023-03-14T03:15:28;99068.03;;;11.40;100.00
23733;BME280;12047;53.450;-2.286;2023-03-14T03:20:29;99093.75;;;10.64;100.00
23733;BME280;12047;53.450;-2.286;2023-03-14T03:25:30;99107.53;;;10.82;100.00
23733;BME280;12047;53.450;-2.286;2023-03-14T03:30:30;99130.50;;;10.67;100.00
23733;BME280;12047;53.450;-2.286;2023-03-14T03:35:31;99133.63;;;10.71;100.00
23733;BME280;12047;53.450;-2.286;2023-03-14T03:40:34;99150.84;;;10.89;100.00
23733;BME280;12047;53.450;-2.286;2023-03-14T03:45:35;99159.75;;;10.97;100.00
23733;BME280;12047;53.450;-2.286;2023-03-14T03:50:35;99171.00;;;10.99;100.00
23733;BME280;12047;53.450;-2.286;2023-03-14T03:55:36;99194.31;;;10.80;100.00
23733;BME280;12047;53.450;-2.286;2023-03-14T04:00:36;99201.84;;;10.91;100.00
23733;BME280;12047;53.450;-2.286;2023-03-14T04:05:37;99217.94;;;11.13;100.00
23733;BME280;12047;53.450;-2.286;2023-03-14T04:10:38;99235.47;;;11.14;100.00
23733;BME280;12047;53.450;-2.286;2023-03-14T04:15:38;99262.94;;;10.67;100.00
23733;BME280;12047;53.450;-2.286;2023-03-14T04:20:39;99276.09;;;10.83;100.00
23733;BME280;12047;53.450;-2.286;2023-03-14T04:25:39;99291.72;;;10.70;100.00
23733;BME280;12047;53.450;-2.286;2023-03-14T04:30:40;99308.28;;;10.25;100.00
23733;BME280;12047;53.450;-2.286;2023-03-14T04:35:40;99332.88;;;10.50;100.00
23733;BME280;12047;53.450;-2.286;2023-03-14T04:40:41;99347.84;;;10.74;100.00
23733;BME280;12047;53.450;-2.286;2023-03-14T04:45:42;99368.19;;;10.34;100.00
23733;BME280;12047;53.450;-2.286;2023-03-14T04:50:43;99383.91;;;10.03;100.00
23733;BME280;12047;53.450;-2.286;2023-03-14T04:55:51;99403.56;;;10.41;100.00
23733;BME280;12047;53.450;-2.286;2023-03-14T05:00:52;99412.34;;;10.09;100.00
23733;BME280;12047;53.450;-2.286;2023-03-14T05:05:52;99425.56;;;10.50;100.00
23733;BME280;12047;53.450;-2.286;2023-03-14T05:10:54;99446.91;;;10.48;100.00
23733;BME280;12047;53.450;-2.286;2023-03-14T05:16:03;99457.94;;;10.84;100.00
23733;BME280;12047;53.450;-2.286;2023-03-14T05:21:07;99468.47;;;11.09;100.00
23733;BME280;12047;53.450;-2.286;2023-03-14T05:26:07;99476.66;;;10.83;100.00
23733;BME280;12047;53.450;-2.286;2023-03-14T05:31:08;99474.06;;;10.59;100.00
23733;BME280;12047;53.450;-2.286;2023-03-14T05:36:09;99486.81;;;10.31;100.00
23733;BME280;12047;53.450;-2.286;2023-03-14T05:41:09;99492.56;;;10.10;100.00
23733;BME280;12047;53.450;-2.286;2023-03-14T05:46:10;99511.47;;;10.31;100.00
23733;BME280;12047;53.450;-2.286;2023-03-14T05:51:10;99547.38;;;10.42;100.00
23733;BME280;12047;53.450;-2.286;2023-03-14T05:56:10;99571.22;;;10.50;100.00
23733;BME280;12047;53.450;-2.286;2023-03-14T06:01:11;99577.50;;;10.57;100.00
23733;BME280;12047;53.450;-2.286;2023-03-14T06:06:11;99603.66;;;10.52;100.00
23733;BME280;12047;53.450;-2.286;2023-03-14T06:11:12;99621.03;;;10.71;100.00
23733;BME280;12047;53.450;-2.286;2023-03-14T06:16:13;99643.03;;;10.39;100.00
23733;BME280;12047;53.450;-2.286;2023-03-14T06:21:14;99660.91;;;10.45;100.00
23733;BME280;12047;53.450;-2.286;2023-03-14T06:26:15;99673.97;;;9.96;100.00
23733;BME280;12047;53.450;-2.286;2023-03-14T06:31:16;99682.09;;;10.37;100.00
23733;BME280;12047;53.450;-2.286;2023-03-14T06:36:16;99697.38;;;10.59;100.00
23733;BME280;12047;53.450;-2.286;2023-03-14T06:41:17;99707.47;;;10.55;100.00
23733;BME280;12047;53.450;-2.286;2023-03-14T06:46:18;99716.84;;;10.42;100.00
23733;BME280;12047;53.450;-2.286;2023-03-14T06:51:18;99743.19;;;10.51;100.00
23733;BME280;12047;53.450;-2.286;2023-03-14T06:56:19;99739.63;;;10.27;100.00
23733;BME280;12047;53.450;-2.286;2023-03-14T07:01:29;99740.03;;;10.48;100.00
23733;BME280;12047;53.450;-2.286;2023-03-14T07:06:33;99771.78;;;10.98;100.00
23733;BME280;12047;53.450;-2.286;2023-03-14T07:11:33;99785.03;;;10.98;100.00
23733;BME280;12047;53.450;-2.286;2023-03-14T07:16:34;99800.50;;;11.11;100.00
23733;BME280;12047;53.450;-2.286;2023-03-14T07:21:35;99816.88;;;11.06;100.00
23733;BME280;12047;53.450;-2.286;2023-03-14T07:26:36;99831.91;;;10.98;100.00
23733;BME280;12047;53.450;-2.286;2023-03-14T07:31:36;99843.78;;;11.52;100.00
23733;BME280;12047;53.450;-2.286;2023-03-14T07:36:36;99872.47;;;11.56;100.00
23733;BME280;12047;53.450;-2.286;2023-03-14T07:41:37;99887.56;;;11.72;100.00
23733;BME280;12047;53.450;-2.286;2023-03-14T07:46:37;99883.03;;;11.40;100.00
23733;BME280;12047;53.450;-2.286;2023-03-14T07:51:38;99897.03;;;12.23;100.00
23733;BME280;12047;53.450;-2.286;2023-03-14T07:56:38;99910.78;;;14.06;100.00
23733;BME280;12047;53.450;-2.286;2023-03-14T08:01:39;99910.66;;;11.88;100.00
23733;BME280;12047;53.450;-2.286;2023-03-14T08:06:39;99905.63;;;13.36;100.00
23733;BME280;12047;53.450;-2.286;2023-03-14T08:11:40;99929.06;;;12.14;100.00
23733;BME280;12047;53.450;-2.286;2023-03-14T08:16:40;99936.44;;;13.22;100.00
23733;BME280;12047;53.450;-2.286;2023-03-14T08:21:42;99942.28;;;14.17;100.00
23733;BME280;12047;53.450;-2.286;2023-03-14T08:26:42;99959.91;;;13.58;100.00
23733;BME280;12047;53.450;-2.286;2023-03-14T08:31:43;99975.06;;;13.10;100.00
23733;BME280;12047;53.450;-2.286;2023-03-14T08:36:44;99982.53;;;13.85;99.74
23733;BME280;12047;53.450;-2.286;2023-03-14T08:41:45;99994.53;;;13.81;95.49
23733;BME280;12047;53.450;-2.286;2023-03-14T08:46:45;100001.38;;;13.75;98.36
23733;BME280;12047;53.450;-2.286;2023-03-14T08:51:46;100026.28;;;13.51;97.48
23733;BME280;12047;53.450;-2.286;2023-03-14T08:56:46;100033.09;;;13.54;97.53
23733;BME280;12047;53.450;-2.286;2023-03-14T09:01:47;100050.94;;;13.45;98.01
23733;BME280;12047;53.450;-2.286;2023-03-14T09:06:47;100058.06;;;12.73;98.83
23733;BME280;12047;53.450;-2.286;2023-03-14T09:11:48;100060.13;;;14.05;96.85
23733;BME280;12047;53.450;-2.286;2023-03-14T09:16:49;100070.53;;;14.14;96.91
23733;BME280;12047;53.450;-2.286;2023-03-14T09:21:50;100082.06;;;13.84;93.43
23733;BME280;12047;53.450;-2.286;2023-03-14T09:26:51;100102.28;;;13.93;89.83
23733;BME280;12047;53.450;-2.286;2023-03-14T09:31:52;100108.72;;;13.20;90.50
23733;BME280;12047;53.450;-2.286;2023-03-14T09:36:52;100115.22;;;12.85;91.25
23733;BME280;12047;53.450;-2.286;2023-03-14T09:41:56;100131.75;;;13.60;89.75
23733;BME280;12047;53.450;-2.286;2023-03-14T09:47:05;100135.81;;;13.16;91.82
23733;BME280;12047;53.450;-2.286;2023-03-14T09:52:36;100135.72;;;14.35;89.28
23733;BME280;12047;53.450;-2.286;2023-03-14T09:57:41;100148.78;;;14.13;86.97
23733;BME280;12047;53.450;-2.286;2023-03-14T10:02:44;100152.53;;;13.96;87.65
23733;BME280;12047;53.450;-2.286;2023-03-14T10:07:46;100167.44;;;13.82;88.84
23733;BME280;12047;53.450;-2.286;2023-03-14T10:12:55;100174.47;;;14.45;90.40
23733;BME280;12047;53.450;-2.286;2023-03-14T10:17:59;100162.88;;;13.44;85.45
23733;BME280;12047;53.450;-2.286;2023-03-14T10:23:03;100151.75;;;13.32;87.79
23733;BME280;12047;53.450;-2.286;2023-03-14T10:28:05;100152.97;;;13.77;89.27
23733;BME280;12047;53.450;-2.286;2023-03-14T10:33:21;100146.84;;;15.07;84.72
23733;BME280;12047;53.450;-2.286;2023-03-14T10:38:24;100152.88;;;14.01;85.11
23733;BME280;12047;53.450;-2.286;2023-03-14T10:43:34;100180.47;;;12.64;88.54
23733;BME280;12047;53.450;-2.286;2023-03-14T10:48:37;100196.75;;;12.02;89.12
23733;BME280;12047;53.450;-2.286;2023-03-14T10:58:47;100218.13;;;12.35;88.44
23733;BME280;12047;53.450;-2.286;2023-03-14T11:04:13;100231.38;;;11.67;88.30
23733;BME280;12047;53.450;-2.286;2023-03-14T11:09:32;100239.41;;;11.75;91.52
23733;BME280;12047;53.450;-2.286;2023-03-14T11:14:41;100255.19;;;12.02;95.23
23733;BME280;12047;53.450;-2.286;2023-03-14T11:25:21;100291.06;;;11.80;93.96
23733;BME280;12047;53.450;-2.286;2023-03-14T11:30:41;100289.28;;;11.28;99.36
23733;BME280;12047;53.450;-2.286;2023-03-14T11:35:55;100300.94;;;11.17;100.00
23733;BME280;12047;53.450;-2.286;2023-03-14T11:40:59;100302.63;;;11.18;100.00
23733;BME280;12047;53.450;-2.286;2023-03-14T11:46:10;100294.88;;;11.42;100.00
23733;BME280;12047;53.450;-2.286;2023-03-14T11:51:23;100290.78;;;11.48;100.00
23733;BME280;12047;53.450;-2.286;2023-03-14T11:56:32;100317.59;;;11.80;100.00
23733;BME280;12047;53.450;-2.286;2023-03-14T12:01:53;100336.09;;;11.72;100.00
23733;BME280;12047;53.450;-2.286;2023-03-14T12:06:56;100355.09;;;12.29;100.00
23733;BME280;12047;53.450;-2.286;2023-03-14T12:12:01;100360.69;;;12.52;100.00
23733;BME280;12047;53.450;-2.286;2023-03-14T12:17:17;100369.66;;;12.51;100.00
23733;BME280;12047;53.450;-2.286;2023-03-14T12:22:30;100335.03;;;11.83;100.00
23733;BME280;12047;53.450;-2.286;2023-03-14T12:33:11;100360.66;;;11.92;100.00
23733;BME280;12047;53.450;-2.286;2023-03-14T12:43:48;100365.06;;;11.83;100.00
23733;BME280;12047;53.450;-2.286;2023-03-14T12:49:03;100358.88;;;12.26;100.00
23733;BME280;12047;53.450;-2.286;2023-03-14T12:59:33;100354.13;;;12.72;100.00
23733;BME280;12047;53.450;-2.286;2023-03-14T13:04:45;100361.22;;;12.64;100.00
23733;BME280;12047;53.450;-2.286;2023-03-14T13:09:54;100355.47;;;12.08;100.00
23733;BME280;12047;53.450;-2.286;2023-03-14T13:14:58;100362.41;;;12.61;100.00
23733;BME280;12047;53.450;-2.286;2023-03-14T13:20:03;100349.38;;;12.50;100.00
23733;BME280;12047;53.450;-2.286;2023-03-14T13:25:09;100354.31;;;12.37;100.00
23733;BME280;12047;53.450;-2.286;2023-03-14T13:30:28;100352.13;;;11.27;100.00
23733;BME280;12047;53.450;-2.286;2023-03-14T13:35:38;100341.72;;;11.87;100.00
23733;BME280;12047;53.450;-2.286;2023-03-14T13:40:42;100343.53;;;11.51;100.00
23733;BME280;12047;53.450;-2.286;2023-03-14T13:45:55;100373.84;;;10.21;100.00
23733;BME280;12047;53.450;-2.286;2023-03-14T13:51:00;100347.53;;;11.02;100.00
23733;BME280;12047;53.450;-2.286;2023-03-14T13:56:02;100355.59;;;11.45;100.00
23733;BME280;12047;53.450;-2.286;2023-03-14T14:01:04;100341.25;;;11.03;100.00
23733;BME280;12047;53.450;-2.286;2023-03-14T14:06:23;100346.34;;;11.14;100.00
23733;BME280;12047;53.450;-2.286;2023-03-14T14:11:41;100363.09;;;11.32;100.00
23733;BME280;12047;53.450;-2.286;2023-03-14T14:16:43;100359.69;;;10.49;100.00
23733;BME280;12047;53.450;-2.286;2023-03-14T14:21:45;100344.72;;;10.85;100.00
23733;BME280;12047;53.450;-2.286;2023-03-14T14:26:54;100353.00;;;11.18;100.00
23733;BME280;12047;53.450;-2.286;2023-03-14T14:37:28;100437.81;;;9.39;100.00
23733;BME280;12047;53.450;-2.286;2023-03-14T14:42:31;100434.75;;;9.53;100.00
23733;BME280;12047;53.450;-2.286;2023-03-14T14:47:31;100464.44;;;10.05;100.00
23733;BME280;12047;53.450;-2.286;2023-03-14T14:52:42;100461.47;;;10.47;100.00
23733;BME280;12047;53.450;-2.286;2023-03-14T14:57:51;100454.44;;;10.65;100.00
23733;BME280;12047;53.450;-2.286;2023-03-14T15:02:54;100460.94;;;9.95;100.00
23733;BME280;12047;53.450;-2.286;2023-03-14T15:07:55;100469.84;;;9.75;100.00
23733;BME280;12047;53.450;-2.286;2023-03-14T15:12:57;100465.13;;;9.69;100.00
23733;BME280;12047;53.450;-2.286;2023-03-14T15:17:57;100480.72;;;9.81;100.00
23733;BME280;12047;53.450;-2.286;2023-03-14T15:22:58;100469.59;;;9.87;100.00
23733;BME280;12047;53.450;-2.286;2023-03-14T15:27:58;100474.47;;;10.31;100.00
23733;BME280;12047;53.450;-2.286;2023-03-14T15:32:59;100462.75;;;10.23;100.00
23733;BME280;12047;53.450;-2.286;2023-03-14T15:37:59;100468.19;;;10.22;100.00
23733;BME280;12047;53.450;-2.286;2023-03-14T15:43:00;100462.75;;;10.23;100.00
23733;BME280;12047;53.450;-2.286;2023-03-14T15:48:01;100471.63;;;10.61;100.00
23733;BME280;12047;53.450;-2.286;2023-03-14T15:53:01;100469.16;;;10.02;100.00
23733;BME280;12047;53.450;-2.286;2023-03-14T15:58:02;100477.34;;;10.56;100.00
23733;BME280;12047;53.450;-2.286;2023-03-14T16:03:02;100474.06;;;11.09;100.00
23733;BME280;12047;53.450;-2.286;2023-03-14T16:08:03;100481.56;;;11.41;100.00
23733;BME280;12047;53.450;-2.286;2023-03-14T16:13:04;100483.50;;;11.67;100.00
23733;BME280;12047;53.450;-2.286;2023-03-14T16:18:05;100484.31;;;11.22;100.00
23733;BME280;12047;53.450;-2.286;2023-03-14T16:23:05;100479.53;;;11.35;100.00
23733;BME280;12047;53.450;-2.286;2023-03-14T16:28:06;100488.09;;;10.92;100.00
23733;BME280;12047;53.450;-2.286;2023-03-14T16:33:06;100495.09;;;11.20;100.00
23733;BME280;12047;53.450;-2.286;2023-03-14T16:38:11;100490.28;;;11.34;100.00
23733;BME280;12047;53.450;-2.286;2023-03-14T16:43:12;100499.44;;;11.39;100.00
23733;BME280;12047;53.450;-2.286;2023-03-14T16:48:12;100498.38;;;11.59;100.00
23733;BME280;12047;53.450;-2.286;2023-03-14T16:53:13;100498.94;;;11.08;100.00
23733;BME280;12047;53.450;-2.286;2023-03-14T16:58:13;100510.06;;;11.39;100.00
23733;BME280;12047;53.450;-2.286;2023-03-14T17:03:15;100517.00;;;11.77;100.00
23733;BME280;12047;53.450;-2.286;2023-03-14T17:08:17;100527.75;;;11.48;100.00
23733;BME280;12047;53.450;-2.286;2023-03-14T17:13:18;100534.16;;;12.36;100.00
23733;BME280;12047;53.450;-2.286;2023-03-14T17:18:26;100548.63;;;11.61;100.00
23733;BME280;12047;53.450;-2.286;2023-03-14T17:23:29;100556.09;;;11.75;100.00
23733;BME280;12047;53.450;-2.286;2023-03-14T17:28:30;100566.00;;;11.73;100.00
23733;BME280;12047;53.450;-2.286;2023-03-14T17:33:31;100571.63;;;11.43;100.00
23733;BME280;12047;53.450;-2.286;2023-03-14T17:38:35;100580.94;;;11.84;100.00
23733;BME280;12047;53.450;-2.286;2023-03-14T17:43:36;100576.09;;;12.15;100.00
23733;BME280;12047;53.450;-2.286;2023-03-14T17:48:37;100582.88;;;12.09;100.00
23733;BME280;12047;53.450;-2.286;2023-03-14T17:53:38;100586.16;;;11.93;100.00
23733;BME280;12047;53.450;-2.286;2023-03-14T17:58:39;100594.31;;;11.18;100.00
23733;BME280;12047;53.450;-2.286;2023-03-14T18:03:43;100592.41;;;11.10;100.00
23733;BME280;12047;53.450;-2.286;2023-03-14T18:08:44;100615.88;;;11.05;100.00
23733;BME280;12047;53.450;-2.286;2023-03-14T18:13:46;100628.03;;;11.45;100.00
23733;BME280;12047;53.450;-2.286;2023-03-14T18:18:47;100641.84;;;11.85;100.00
23733;BME280;12047;53.450;-2.286;2023-03-14T18:24:01;100647.56;;;11.44;100.00
23733;BME280;12047;53.450;-2.286;2023-03-14T18:29:19;100663.00;;;11.21;100.00
23733;BME280;12047;53.450;-2.286;2023-03-14T18:34:26;100669.53;;;11.36;100.00
23733;BME280;12047;53.450;-2.286;2023-03-14T18:39:27;100693.19;;;11.01;100.00
23733;BME280;12047;53.450;-2.286;2023-03-14T18:44:27;100697.34;;;11.32;100.00
23733;BME280;12047;53.450;-2.286;2023-03-14T18:49:28;100712.97;;;11.35;100.00
23733;BME280;12047;53.450;-2.286;2023-03-14T18:54:29;100720.41;;;11.03;100.00
23733;BME280;12047;53.450;-2.286;2023-03-14T18:59:29;100718.56;;;10.94;100.00
23733;BME280;12047;53.450;-2.286;2023-03-14T19:04:30;100727.22;;;10.96;100.00
23733;BME280;12047;53.450;-2.286;2023-03-14T19:09:31;100726.53;;;10.94;100.00
23733;BME280;12047;53.450;-2.286;2023-03-14T19:14:31;100739.63;;;10.66;100.00
23733;BME280;12047;53.450;-2.286;2023-03-14T19:19:32;100731.84;;;10.74;100.00
23733;BME280;12047;53.450;-2.286;2023-03-14T19:24:32;100718.56;;;10.55;100.00
23733;BME280;12047;53.450;-2.286;2023-03-14T19:29:34;100730.59;;;10.88;100.00
23733;BME280;12047;53.450;-2.286;2023-03-14T19:34:41;100745.09;;;11.03;100.00
23733;BME280;12047;53.450;-2.286;2023-03-14T19:39:43;100765.31;;;10.95;100.00
23733;BME280;12047;53.450;-2.286;2023-03-14T19:44:46;100782.31;;;10.73;100.00
23733;BME280;12047;53.450;-2.286;2023-03-14T19:49:46;100821.50;;;9.15;100.00
23733;BME280;12047;53.450;-2.286;2023-03-14T19:54:47;100831.78;;;8.86;100.00
23733;BME280;12047;53.450;-2.286;2023-03-14T19:59:48;100850.78;;;9.24;100.00
23733;BME280;12047;53.450;-2.286;2023-03-14T20:04:48;100842.72;;;9.25;100.00
23733;BME280;12047;53.450;-2.286;2023-03-14T20:09:49;100847.91;;;9.47;100.00
23733;BME280;12047;53.450;-2.286;2023-03-14T20:14:49;100854.66;;;9.40;100.00
23733;BME280;12047;53.450;-2.286;2023-03-14T20:19:50;100874.09;;;9.50;100.00
23733;BME280;12047;53.450;-2.286;2023-03-14T20:24:51;100887.03;;;10.06;100.00
23733;BME280;12047;53.450;-2.286;2023-03-14T20:29:55;100906.53;;;9.64;100.00
23733;BME280;12047;53.450;-2.286;2023-03-14T20:34:56;100912.84;;;8.97;100.00
23733;BME280;12047;53.450;-2.286;2023-03-14T20:39:56;100874.28;;;9.38;100.00
23733;BME280;12047;53.450;-2.286;2023-03-14T20:45:00;100878.16;;;9.54;100.00
23733;BME280;12047;53.450;-2.286;2023-03-14T20:50:00;100889.56;;;9.87;100.00
23733;BME280;12047;53.450;-2.286;2023-03-14T20:55:02;100888.63;;;10.18;100.00
23733;BME280;12047;53.450;-2.286;2023-03-14T21:00:06;100896.13;;;10.34;100.00
23733;BME280;12047;53.450;-2.286;2023-03-14T21:05:10;100902.91;;;9.65;100.00
23733;BME280;12047;53.450;-2.286;2023-03-14T21:10:12;100898.22;;;8.82;100.00
23733;BME280;12047;53.450;-2.286;2023-03-14T21:15:13;100891.97;;;8.49;100.00
23733;BME280;12047;53.450;-2.286;2023-03-14T21:20:14;100890.56;;;9.54;100.00
23733;BME280;12047;53.450;-2.286;2023-03-14T21:25:15;100890.72;;;10.36;100.00
23733;BME280;12047;53.450;-2.286;2023-03-14T21:30:16;100893.88;;;10.09;100.00
23733;BME280;12047;53.450;-2.286;2023-03-14T21:35:17;100913.81;;;9.92;100.00
23733;BME280;12047;53.450;-2.286;2023-03-14T21:40:18;100918.09;;;10.04;100.00
23733;BME280;12047;53.450;-2.286;2023-03-14T21:45:23;100929.25;;;9.87;100.00
23733;BME280;12047;53.450;-2.286;2023-03-14T21:50:27;100936.03;;;10.01;100.00
23733;BME280;12047;53.450;-2.286;2023-03-14T21:55:28;100939.47;;;10.12;100.00
23733;BME280;12047;53.450;-2.286;2023-03-14T22:00:28;100948.22;;;9.92;100.00
23733;BME280;12047;53.450;-2.286;2023-03-14T22:05:29;100946.69;;;10.10;100.00
23733;BME280;12047;53.450;-2.286;2023-03-14T22:10:29;100943.00;;;10.02;100.00
23733;BME280;12047;53.450;-2.286;2023-03-14T22:20:52;100969.50;;;9.70;100.00
23733;BME280;12047;53.450;-2.286;2023-03-14T22:25:53;100969.31;;;9.50;100.00
23733;BME280;12047;53.450;-2.286;2023-03-14T22:30:53;100970.63;;;9.56;100.00
23733;BME280;12047;53.450;-2.286;2023-03-14T22:35:54;100973.22;;;9.24;100.00
23733;BME280;12047;53.450;-2.286;2023-03-14T22:40:59;100981.69;;;9.07;100.00
23733;BME280;12047;53.450;-2.286;2023-03-14T22:46:05;100998.31;;;9.41;100.00
23733;BME280;12047;53.450;-2.286;2023-03-14T22:51:08;101004.03;;;9.03;100.00
23733;BME280;12047;53.450;-2.286;2023-03-14T22:56:08;101001.38;;;9.03;100.00
23733;BME280;12047;53.450;-2.286;2023-03-14T23:01:09;101013.47;;;8.14;100.00
23733;BME280;12047;53.450;-2.286;2023-03-14T23:06:10;101014.09;;;8.98;100.00
23733;BME280;12047;53.450;-2.286;2023-03-14T23:11:11;101026.13;;;9.24;100.00
23733;BME280;12047;53.450;-2.286;2023-03-14T23:16:14;101025.88;;;8.82;100.00
23733;BME280;12047;53.450;-2.286;2023-03-14T23:21:17;101030.94;;;8.97;100.00
23733;BME280;12047;53.450;-2.286;2023-03-14T23:26:24;101049.66;;;9.16;100.00
23733;BME280;12047;53.450;-2.286;2023-03-14T23:31:25;101056.84;;;8.58;100.00
23733;BME280;12047;53.450;-2.286;2023-03-14T23:36:26;101074.53;;;7.49;100.00
23733;BME280;12047;53.450;-2.286;2023-03-14T23:41:26;101082.13;;;7.91;100.00
23733;BME280;12047;53.450;-2.286;2023-03-14T23:46:27;101076.28;;;8.68;100.00
23733;BME280;12047;53.450;-2.286;2023-03-14T23:51:28;101083.25;;;8.69;100.00
23733;BME280;12047;53.450;-2.286;2023-03-14T23:56:28;101083.28;;;7.87;100.00
